Alvord, Iowa
Current Conditions -  °F | °C
As of 10:34 PM on Thursday 18 Dec 2014 (Local Time) from KLYV Reporting Station
Overcast Overcast  
Wind Chill: 20°   Ceiling: 1300
Heat Index: 28°   Visibility: 7mi
Dew Point: 27°   Wind: 9mph
Humidity: 93%   Direction: 180°S
Pressure: 30.19"   Gusts: NA
Location:  43.34°N, 96.3°W
Report Text: KLYV 190434Z AUTO 18008KT 7SM OVC013 M02/M03 A3019 RMK AO2
Loading
Personal Weather Stations






























Interactive Weather Map New forecast layout! Learn more

10-Day Weather Forecast

Advertisements
Track Severe Weather on mobile